Time;durP1;ratioP1;P1;durP2;ratioP2;P2;SDS_P1;SDS_P2;PMS_P1;PMS_P2;Temp;Humidity;BMP_temperature;BMP_pressure;BME280_temperature;BME280_humidity;BME280_pressure;Samples;Min_cycle;Max_cycle;Signal;HPM_P1;HPM_P2
2024/03/28 00:01:21;;;;;;;2.53;0.90;;;;;;;;;;6222657;28;20129;-77
2024/03/28 00:04:21;;;;;;;2.00;0.93;;;;;;;;;;6221736;28;20493;-75
2024/03/28 00:07:22;;;;;;;3.37;0.73;;;;;;;;;;6221686;28;20036;-77
2024/03/28 00:10:22;;;;;;;3.83;1.07;;;;;;;;;;6223343;28;20034;-77
2024/03/28 00:13:23;;;;;;;2.10;0.80;;;;;;;;;;6222592;28;20045;-77
2024/03/28 00:16:24;;;;;;;1.17;0.80;;;;;;;;;;6224719;28;20382;-75
2024/03/28 00:19:24;;;;;;;1.07;0.70;;;;;;;;;;6222526;28;20037;-77
2024/03/28 00:22:24;;;;;;;3.77;0.90;;;;;;;;;;6222997;28;20474;-77
2024/03/28 00:25:25;;;;;;;1.57;0.73;;;;;;;;;;6223979;28;20502;-77
2024/03/28 00:28:25;;;;;;;2.60;1.00;;;;;;;;;;6223449;28;20157;-77
2024/03/28 00:31:26;;;;;;;1.03;0.60;;;;;;;;;;6223770;28;20104;-75
2024/03/28 00:34:26;;;;;;;2.45;0.80;;;;;;;;;;6222256;28;20569;-77
2024/03/28 00:37:26;;;;;;;2.50;0.70;;;;;;;;;;6222542;28;20038;-77
2024/03/28 00:40:27;;;;;;;1.80;0.50;;;;;;;;;;6222791;28;20113;-77
2024/03/28 00:43:27;;;;;;;2.53;0.60;;;;;;;;;;6223195;28;20030;-77
2024/03/28 00:46:27;;;;;;;2.73;0.73;;;;;;;;;;6221870;28;20041;-77
2024/03/28 00:49:28;;;;;;;2.63;0.57;;;;;;;;;;6222002;28;20034;-77
2024/03/28 00:52:28;;;;;;;;;;;;;;;;;;6222024;28;20026;-76
2024/03/28 00:55:29;;;;;;;2.70;0.50;;;;;;;;;;6223157;28;20354;-77
2024/03/28 00:58:29;;;;;;;0.87;0.50;;;;;;;;;;6222384;28;20068;-77
2024/03/28 01:01:29;;;;;;;1.60;0.68;;;;;;;;;;6220145;28;20200;-77
2024/03/28 01:04:30;;;;;;;1.87;0.40;;;;;;;;;;6219788;28;20159;-77
2024/03/28 01:07:30;;;;;;;1.20;0.60;;;;;;;;;;6221771;28;20084;-76
2024/03/28 01:10:30;;;;;;;3.20;0.60;;;;;;;;;;6223713;28;20096;-77
2024/03/28 01:13:30;;;;;;;2.57;0.70;;;;;;;;;;6220985;28;20072;-77
2024/03/28 01:16:31;;;;;;;1.10;0.70;;;;;;;;;;6223250;28;20025;-76
2024/03/28 01:19:31;;;;;;;2.33;0.80;;;;;;;;;;6219409;28;20034;-77
2024/03/28 01:22:31;;;;;;;1.27;0.50;;;;;;;;;;6221069;28;20037;-77
2024/03/28 01:25:33;;;;;;;1.53;0.80;;;;;;;;;;6223097;28;20052;-76
2024/03/28 01:28:33;;;;;;;1.58;0.80;;;;;;;;;;6218266;28;20469;-77
2024/03/28 01:31:33;;;;;;;1.50;0.60;;;;;;;;;;6214981;28;20025;-76
2024/03/28 01:34:33;;;;;;;2.23;0.60;;;;;;;;;;6218009;28;20038;-76
2024/03/28 01:37:34;;;;;;;1.13;0.60;;;;;;;;;;6220678;28;20030;-76
2024/03/28 01:40:34;;;;;;;1.80;0.70;;;;;;;;;;6214866;28;20030;-76
2024/03/28 01:43:38;;;;;;;1.60;0.60;;;;;;;;;;6217255;28;20034;-76
2024/03/28 01:46:40;;;;;;;1.75;0.77;;;;;;;;;;6221373;28;20125;-76
2024/03/28 01:49:41;;;;;;;0.93;0.40;;;;;;;;;;6219571;28;20028;-76
2024/03/28 01:52:42;;;;;;;2.72;0.60;;;;;;;;;;6219884;28;20463;-76
2024/03/28 01:55:42;;;;;;;0.93;0.47;;;;;;;;;;6222467;28;20042;-76
2024/03/28 01:58:43;;;;;;;1.50;0.70;;;;;;;;;;6221540;28;20065;-76
2024/03/28 02:01:44;;;;;;;0.85;0.60;;;;;;;;;;6219945;28;20080;-76
2024/03/28 02:04:44;;;;;;;4.82;0.68;;;;;;;;;;6217825;28;20493;-76
2024/03/28 02:07:44;;;;;;;0.83;0.63;;;;;;;;;;6219697;28;20478;-76
2024/03/28 02:10:45;;;;;;;0.80;0.80;;;;;;;;;;6221685;28;20483;-75
2024/03/28 02:13:46;;;;;;;0.50;0.50;;;;;;;;;;6221008;28;20034;-76
2024/03/28 02:16:46;;;;;;;0.40;0.40;;;;;;;;;;6221840;28;20026;-75
2024/03/28 02:19:46;;;;;;;0.30;0.30;;;;;;;;;;6220016;28;20057;-77
2024/03/28 02:22:46;;;;;;;0.30;0.30;;;;;;;;;;6218233;28;20038;-76
2024/03/28 02:25:47;;;;;;;0.30;0.30;;;;;;;;;;6221790;28;20544;-76
2024/03/28 02:28:48;;;;;;;0.20;0.20;;;;;;;;;;6221291;28;20069;-77
2024/03/28 02:31:48;;;;;;;0.10;0.10;;;;;;;;;;6220499;28;20487;-76
2024/03/28 02:34:48;;;;;;;0.10;0.10;;;;;;;;;;6213195;28;20485;-76
2024/03/28 02:37:48;;;;;;;0.10;0.10;;;;;;;;;;6216672;28;20601;-76
2024/03/28 02:40:49;;;;;;;0.20;0.20;;;;;;;;;;6219331;28;20510;-76
2024/03/28 02:43:49;;;;;;;0.10;0.10;;;;;;;;;;6220222;28;20811;-76
2024/03/28 02:46:49;;;;;;;0.10;0.10;;;;;;;;;;6220654;28;20053;-76
2024/03/28 02:49:49;;;;;;;0.10;0.10;;;;;;;;;;6220454;28;20493;-75
2024/03/28 02:52:50;;;;;;;0.10;0.10;;;;;;;;;;6219980;28;20624;-76
2024/03/28 02:55:50;;;;;;;0.10;0.10;;;;;;;;;;6220925;28;20534;-76
2024/03/28 02:58:50;;;;;;;0.10;0.10;;;;;;;;;;6218938;28;20048;-76
2024/03/28 03:01:51;;;;;;;0.10;0.10;;;;;;;;;;6220648;28;20289;-76
2024/03/28 03:04:51;;;;;;;0.00;0.00;;;;;;;;;;6219703;28;20458;-76
2024/03/28 03:07:51;;;;;;;0.07;0.07;;;;;;;;;;6219707;28;20513;-76
2024/03/28 03:10:51;;;;;;;0.00;0.00;;;;;;;;;;6221719;28;20504;-76
2024/03/28 03:13:52;;;;;;;0.00;0.00;;;;;;;;;;6220450;28;20495;-76
2024/03/28 03:16:52;;;;;;;0.90;0.10;;;;;;;;;;6218203;28;20463;-76
2024/03/28 03:19:55;;;;;;;0.10;0.10;;;;;;;;;;6222742;28;20394;-76
2024/03/28 03:23:04;;;;;;;0.10;0.10;;;;;;;;;;6224500;28;20018;-75
2024/03/28 03:26:20;;;;;;;0.10;0.10;;;;;;;;;;6225862;28;20033;-76
2024/03/28 03:35:58;;;;;;;0.00;0.00;;;;;;;;;;6222202;28;20402;-76
2024/03/28 03:38:58;;;;;;;0.10;0.10;;;;;;;;;;6223015;28;20060;-76
2024/03/28 03:41:58;;;;;;;0.00;0.00;;;;;;;;;;6225202;28;20029;-76
2024/03/28 03:44:59;;;;;;;0.00;0.00;;;;;;;;;;6222607;28;20527;-76
2024/03/28 03:47:59;;;;;;;0.10;0.10;;;;;;;;;;6223760;28;20467;-76
2024/03/28 03:50:59;;;;;;;0.00;0.00;;;;;;;;;;6222563;28;20265;-76
2024/03/28 03:54:00;;;;;;;0.00;0.00;;;;;;;;;;6224159;28;20036;-76
2024/03/28 03:57:00;;;;;;;0.10;0.10;;;;;;;;;;6225018;28;20022;-76
2024/03/28 04:00:00;;;;;;;0.00;0.00;;;;;;;;;;6224749;28;20053;-75
2024/03/28 04:03:00;;;;;;;0.10;0.10;;;;;;;;;;6222798;28;20029;-76
2024/03/28 04:06:01;;;;;;;0.00;0.00;;;;;;;;;;6222041;28;20034;-76
2024/03/28 04:09:02;;;;;;;0.10;0.10;;;;;;;;;;6222666;28;20021;-76
2024/03/28 04:12:02;;;;;;;0.00;0.00;;;;;;;;;;6224084;28;20558;-76
2024/03/28 04:15:02;;;;;;;0.07;0.00;;;;;;;;;;6220395;28;20277;-75
2024/03/28 04:18:03;;;;;;;0.00;0.00;;;;;;;;;;6221278;28;20030;-75
2024/03/28 04:21:03;;;;;;;0.00;0.00;;;;;;;;;;6224079;28;20025;-76
2024/03/28 04:24:04;;;;;;;0.00;0.00;;;;;;;;;;6221611;28;20052;-76
2024/03/28 04:27:04;;;;;;;0.10;0.10;;;;;;;;;;6222843;28;20485;-76
2024/03/28 04:30:06;;;;;;;0.10;0.10;;;;;;;;;;6223067;28;20109;-76
2024/03/28 04:33:07;;;;;;;0.20;0.10;;;;;;;;;;6219198;28;20459;-75
2024/03/28 04:36:07;;;;;;;0.10;0.10;;;;;;;;;;6223668;28;20040;-75
2024/03/28 04:39:07;;;;;;;0.10;0.10;;;;;;;;;;6222490;28;20041;-76
2024/03/28 04:42:07;;;;;;;0.00;0.00;;;;;;;;;;6222722;28;20451;-76
2024/03/28 04:45:08;;;;;;;0.10;0.10;;;;;;;;;;6223760;28;20593;-75
2024/03/28 04:48:09;;;;;;;0.20;0.10;;;;;;;;;;6221034;28;20378;-77
2024/03/28 04:51:09;;;;;;;0.00;0.00;;;;;;;;;;6223091;28;20026;-76
2024/03/28 04:54:09;;;;;;;0.00;0.00;;;;;;;;;;6221140;28;20018;-76
2024/03/28 04:57:09;;;;;;;0.17;0.17;;;;;;;;;;6222627;28;20033;-76
2024/03/28 05:00:10;;;;;;;0.00;0.00;;;;;;;;;;6221038;28;20057;-76
2024/03/28 05:03:10;;;;;;;0.00;0.00;;;;;;;;;;6220782;28;20107;-77
2024/03/28 05:06:13;;;;;;;0.10;0.10;;;;;;;;;;6222866;28;20026;-76
2024/03/28 05:09:13;;;;;;;0.10;0.10;;;;;;;;;;6221910;28;20113;-76
2024/03/28 05:12:14;;;;;;;0.03;0.03;;;;;;;;;;6223578;28;20025;-76
2024/03/28 05:15:14;;;;;;;0.10;0.10;;;;;;;;;;6221522;28;20029;-76
2024/03/28 05:18:14;;;;;;;0.03;0.03;;;;;;;;;;6221463;28;20033;-76
2024/03/28 05:21:14;;;;;;;0.10;0.10;;;;;;;;;;6221912;28;20029;-76
2024/03/28 05:24:15;;;;;;;0.00;0.00;;;;;;;;;;6221483;28;20034;-76
2024/03/28 05:27:15;;;;;;;0.10;0.10;;;;;;;;;;6223328;28;20045;-76
2024/03/28 05:30:15;;;;;;;0.00;0.00;;;;;;;;;;6221905;28;20068;-76
2024/03/28 05:33:15;;;;;;;0.10;0.10;;;;;;;;;;6220140;28;20471;-76
2024/03/28 05:36:15;;;;;;;0.10;0.10;;;;;;;;;;6221607;28;20503;-76
2024/03/28 05:39:19;;;;;;;0.00;0.00;;;;;;;;;;6220886;28;20419;-77
2024/03/28 05:42:19;;;;;;;1.50;1.20;;;;;;;;;;6221460;28;20029;-76
2024/03/28 05:45:19;;;;;;;1.23;1.10;;;;;;;;;;6222127;28;20088;-76
2024/03/28 05:48:20;;;;;;;0.70;0.63;;;;;;;;;;6218431;28;20037;-76
2024/03/28 05:51:20;;;;;;;0.47;0.40;;;;;;;;;;6219844;28;20026;-75
2024/03/28 05:54:22;;;;;;;0.20;0.20;;;;;;;;;;6218791;28;20034;-77
2024/03/28 05:57:22;;;;;;;0.32;0.20;;;;;;;;;;6221206;28;20093;-75
2024/03/28 06:00:22;;;;;;;0.20;0.17;;;;;;;;;;6220488;28;20058;-76
2024/03/28 06:03:23;;;;;;;0.10;0.10;;;;;;;;;;6218266;28;20026;-76
2024/03/28 06:06:23;;;;;;;0.10;0.10;;;;;;;;;;6221473;28;20018;-76
2024/03/28 06:09:23;;;;;;;0.00;0.00;;;;;;;;;;6220110;28;20463;-75
2024/03/28 06:12:23;;;;;;;0.10;0.10;;;;;;;;;;6220365;28;20458;-76
2024/03/28 06:15:24;;;;;;;0.10;0.10;;;;;;;;;;6220686;28;20540;-76
2024/03/28 06:18:24;;;;;;;0.10;0.10;;;;;;;;;;6219756;28;20030;-76
2024/03/28 06:21:24;;;;;;;0.10;0.10;;;;;;;;;;6221527;28;20037;-76
2024/03/28 06:24:25;;;;;;;0.13;0.10;;;;;;;;;;6217735;28;20036;-76
2024/03/28 06:27:25;;;;;;;0.10;0.10;;;;;;;;;;6222359;28;20030;-76
2024/03/28 06:30:26;;;;;;;0.43;0.20;;;;;;;;;;6221736;28;20049;-76
2024/03/28 06:33:26;;;;;;;0.10;0.10;;;;;;;;;;6213463;28;20037;-76
2024/03/28 06:36:27;;;;;;;0.10;0.10;;;;;;;;;;6221229;28;20486;-76
2024/03/28 06:39:27;;;;;;;0.10;0.10;;;;;;;;;;6220466;28;20463;-76
2024/03/28 06:42:28;;;;;;;0.20;0.10;;;;;;;;;;6217264;28;20359;-76
2024/03/28 06:45:28;;;;;;;0.10;0.10;;;;;;;;;;6216810;28;20060;-76
2024/03/28 06:48:31;;;;;;;0.10;0.10;;;;;;;;;;6215452;28;20466;-77
2024/03/28 06:51:31;;;;;;;0.20;0.20;;;;;;;;;;6212726;28;20017;-80
2024/03/28 06:54:32;;;;;;;0.77;0.50;;;;;;;;;;6222949;28;20041;-80
2024/03/28 06:57:32;;;;;;;0.40;0.40;;;;;;;;;;6226472;28;20026;-81
2024/03/28 07:00:32;;;;;;;0.40;0.30;;;;;;;;;;6224762;28;20053;-82
2024/03/28 07:03:32;;;;;;;0.20;0.20;;;;;;;;;;6224673;28;20494;-83
2024/03/28 07:06:32;;;;;;;0.20;0.20;;;;;;;;;;6225340;28;20471;-78
2024/03/28 07:09:33;;;;;;;0.20;0.20;;;;;;;;;;6223787;28;20022;-80
2024/03/28 07:12:36;;;;;;;0.10;0.10;;;;;;;;;;6225280;28;20410;-78
2024/03/28 07:15:37;;;;;;;0.10;0.10;;;;;;;;;;6226006;28;20072;-80
2024/03/28 07:18:37;;;;;;;0.20;0.17;;;;;;;;;;6224921;28;20026;-78
2024/03/28 07:21:38;;;;;;;0.10;0.10;;;;;;;;;;6224261;28;20144;-78
2024/03/28 07:24:38;;;;;;;0.20;0.20;;;;;;;;;;6222047;28;20040;-78
2024/03/28 07:27:38;;;;;;;0.10;0.10;;;;;;;;;;6225285;28;20094;-77
2024/03/28 07:30:39;;;;;;;1.77;0.20;;;;;;;;;;6226071;28;20108;-77
2024/03/28 07:33:39;;;;;;;0.10;0.10;;;;;;;;;;6221287;28;20118;-78
2024/03/28 07:36:40;;;;;;;0.10;0.10;;;;;;;;;;6224537;28;20037;-78
2024/03/28 07:39:41;;;;;;;0.40;0.20;;;;;;;;;;6224244;28;20084;-78
2024/03/28 07:42:41;;;;;;;0.20;0.20;;;;;;;;;;6222124;28;20486;-78
2024/03/28 07:45:41;;;;;;;0.03;0.03;;;;;;;;;;6225110;28;20536;-78
2024/03/28 07:48:42;;;;;;;0.20;0.10;;;;;;;;;;6218296;28;20442;-77
2024/03/28 07:51:42;;;;;;;0.43;0.17;;;;;;;;;;6223712;28;20038;-77
2024/03/28 07:54:42;;;;;;;0.20;0.10;;;;;;;;;;6225538;28;20037;-77
2024/03/28 07:57:43;;;;;;;0.10;0.10;;;;;;;;;;6224924;28;20026;-77
2024/03/28 08:00:43;;;;;;;0.20;0.20;;;;;;;;;;6226725;28;20050;-76
2024/03/28 08:03:43;;;;;;;0.40;0.17;;;;;;;;;;6223151;28;20486;-76
2024/03/28 08:06:47;;;;;;;0.10;0.10;;;;;;;;;;6225097;28;20482;-77
2024/03/28 08:09:47;;;;;;;0.32;0.20;;;;;;;;;;6221962;28;20092;-77
2024/03/28 08:12:47;;;;;;;0.20;0.20;;;;;;;;;;6224834;28;20470;-77
2024/03/28 08:15:48;;;;;;;0.13;0.13;;;;;;;;;;6226147;28;20025;-76
2024/03/28 08:18:48;;;;;;;0.40;0.20;;;;;;;;;;6219023;28;20390;-78
2024/03/28 08:21:49;;;;;;;0.23;0.20;;;;;;;;;;6221319;28;20042;-77
2024/03/28 08:24:49;;;;;;;0.20;0.20;;;;;;;;;;6221079;28;20479;-77
2024/03/28 08:27:50;;;;;;;0.20;0.20;;;;;;;;;;6215131;28;20112;-77
2024/03/28 08:30:50;;;;;;;0.30;0.30;;;;;;;;;;6214842;28;20249;-77
2024/03/28 08:33:51;;;;;;;0.33;0.30;;;;;;;;;;6219831;28;20138;-77
2024/03/28 08:36:51;;;;;;;0.20;0.20;;;;;;;;;;6222412;28;20026;-78
2024/03/28 08:39:52;;;;;;;0.20;0.20;;;;;;;;;;6222271;28;20021;-77
2024/03/28 08:42:52;;;;;;;0.27;0.27;;;;;;;;;;5867694;28;10000087;-77
2024/03/28 08:45:52;;;;;;;0.30;0.20;;;;;;;;;;6225263;28;20033;-77
2024/03/28 08:48:53;;;;;;;0.20;0.20;;;;;;;;;;6227400;28;20045;-77
2024/03/28 08:51:53;;;;;;;0.20;0.20;;;;;;;;;;6225084;28;20083;-78
2024/03/28 08:54:53;;;;;;;1.20;0.30;;;;;;;;;;6224913;28;20022;-77
2024/03/28 08:57:54;;;;;;;0.17;0.15;;;;;;;;;;6225681;28;20540;-77
2024/03/28 09:00:54;;;;;;;0.10;0.10;;;;;;;;;;6222370;28;20053;-76
2024/03/28 09:03:55;;;;;;;0.10;0.10;;;;;;;;;;6219276;28;20120;-77
2024/03/28 09:06:55;;;;;;;0.28;0.20;;;;;;;;;;6221410;28;20030;-79
2024/03/28 09:09:55;;;;;;;0.20;0.20;;;;;;;;;;6223858;28;20437;-78
2024/03/28 09:12:56;;;;;;;0.30;0.20;;;;;;;;;;6223414;28;20458;-77
2024/03/28 09:15:56;;;;;;;0.20;0.20;;;;;;;;;;6223678;28;20493;-78
2024/03/28 09:18:56;;;;;;;0.10;0.10;;;;;;;;;;6221965;28;20494;-75
2024/03/28 09:21:56;;;;;;;0.20;0.20;;;;;;;;;;6224347;28;20114;-77
2024/03/28 09:24:57;;;;;;;0.10;0.10;;;;;;;;;;6224453;28;20057;-78
2024/03/28 09:27:57;;;;;;;0.10;0.10;;;;;;;;;;6222593;28;20104;-78
2024/03/28 09:30:59;;;;;;;0.20;0.20;;;;;;;;;;6225181;28;20104;-78
2024/03/28 09:33:59;;;;;;;0.20;0.20;;;;;;;;;;6210015;28;20419;-78
2024/03/28 09:37:07;;;;;;;0.20;0.20;;;;;;;;;;6289036;28;20387;-78
2024/03/28 09:40:08;;;;;;;0.20;0.20;;;;;;;;;;6258470;28;20029;-78
2024/03/28 09:43:09;;;;;;;0.20;0.20;;;;;;;;;;6269427;28;20470;-77
2024/03/28 09:46:13;;;;;;;0.13;0.13;;;;;;;;;;6267061;28;20060;-77
2024/03/28 09:49:17;;;;;;;0.10;0.10;;;;;;;;;;6268032;28;20117;-80
2024/03/28 09:52:17;;;;;;;0.17;0.17;;;;;;;;;;6277938;28;20031;-79
2024/03/28 09:55:19;;;;;;;0.40;0.20;;;;;;;;;;6293882;28;20389;-78
2024/03/28 09:58:19;;;;;;;;;;;;;;;;;;6294588;28;20029;-79
2024/03/28 10:01:19;;;;;;;0.20;0.20;;;;;;;;;;6276434;28;19916;-79
2024/03/28 10:04:19;;;;;;;1.63;0.30;;;;;;;;;;6254588;28;20099;-79
2024/03/28 10:07:21;;;;;;;0.30;0.20;;;;;;;;;;6266212;28;20033;-79
2024/03/28 10:10:24;;;;;;;0.20;0.20;;;;;;;;;;6267742;28;20021;-79
2024/03/28 10:13:37;;;;;;;0.35;0.30;;;;;;;;;;6289644;28;20028;-78
2024/03/28 10:16:37;;;;;;;0.17;0.17;;;;;;;;;;6293794;28;20020;-78
2024/03/28 10:19:40;;;;;;;1.00;0.30;;;;;;;;;;6251032;28;20041;-78
2024/03/28 10:22:44;;;;;;;0.20;0.20;;;;;;;;;;6267979;28;20021;-78
2024/03/28 10:25:44;;;;;;;0.43;0.30;;;;;;;;;;6268868;28;20409;-78
2024/03/28 10:28:44;;;;;;;0.87;0.20;;;;;;;;;;6271420;28;20036;-78
2024/03/28 10:31:45;;;;;;;0.30;0.30;;;;;;;;;;6280978;28;20028;-78
2024/03/28 10:34:49;;;;;;;0.17;0.17;;;;;;;;;;6267799;28;20501;-78
2024/03/28 10:38:04;;;;;;;0.40;0.30;;;;;;;;;;6265784;28;20420;-78
2024/03/28 10:41:05;;;;;;;0.28;0.25;;;;;;;;;;6269029;28;20118;-80
2024/03/28 10:44:08;;;;;;;0.20;0.20;;;;;;;;;;6263881;28;20025;-79
2024/03/28 10:47:11;;;;;;;0.20;0.20;;;;;;;;;;6261409;28;20044;-80
2024/03/28 10:50:18;;;;;;;0.20;0.20;;;;;;;;;;6264121;28;20053;-79
2024/03/28 10:53:25;;;;;;;0.17;0.15;;;;;;;;;;6250889;28;20037;-78
2024/03/28 10:56:26;;;;;;;0.30;0.25;;;;;;;;;;6250824;28;20034;-81
2024/03/28 10:59:28;;;;;;;0.25;0.25;;;;;;;;;;6251151;28;20524;-79
2024/03/28 11:02:30;;;;;;;0.20;0.20;;;;;;;;;;6250369;28;20040;-76
2024/03/28 11:05:31;;;;;;;0.20;0.20;;;;;;;;;;6251182;28;20021;-75
2024/03/28 11:08:33;;;;;;;0.38;0.38;;;;;;;;;;6247330;28;20473;-76
2024/03/28 11:11:33;;;;;;;0.60;0.43;;;;;;;;;;6251834;28;20029;-75
2024/03/28 11:14:34;;;;;;;0.30;0.30;;;;;;;;;;6249766;28;20496;-75
2024/03/28 11:17:40;;;;;;;0.47;0.25;;;;;;;;;;6250600;28;20169;-75
2024/03/28 11:20:50;;;;;;;0.20;0.20;;;;;;;;;;6250621;28;20024;-72
2024/03/28 11:23:50;;;;;;;0.13;0.13;;;;;;;;;;6250677;28;20121;-79
2024/03/28 11:26:54;;;;;;;0.55;0.20;;;;;;;;;;6251210;28;20033;-77
2024/03/28 11:30:04;;;;;;;0.25;0.20;;;;;;;;;;6249041;28;20041;-78
2024/03/28 11:33:11;;;;;;;0.15;0.15;;;;;;;;;;6248842;28;20037;-77
2024/03/28 11:36:13;;;;;;;0.17;0.17;;;;;;;;;;6250649;28;20053;-80
2024/03/28 11:39:14;;;;;;;0.30;0.30;;;;;;;;;;6249633;28;20079;-79
2024/03/28 11:42:14;;;;;;;0.27;0.20;;;;;;;;;;6250203;28;20030;-80
2024/03/28 11:45:15;;;;;;;;;;;;;;;;;;6243377;28;20036;-79
2024/03/28 11:48:15;;;;;;;0.43;0.20;;;;;;;;;;6261636;28;19943;-79
2024/03/28 11:51:15;;;;;;;;;;;;;;;;;;6260889;28;20500;-79
2024/03/28 11:54:16;;;;;;;0.50;0.10;;;;;;;;;;6248995;28;19912;-79
2024/03/28 11:57:19;;;;;;;0.50;0.20;;;;;;;;;;6250063;28;20378;-79
2024/03/28 12:00:19;;;;;;;0.20;0.20;;;;;;;;;;6249380;28;20029;-79
2024/03/28 12:03:19;;;;;;;;;;;;;;;;;;6247428;28;20091;-80
2024/03/28 12:06:20;;;;;;;0.25;0.25;;;;;;;;;;6261085;28;20293;-78
2024/03/28 12:09:20;;;;;;;;;;;;;;;;;;6247840;28;20072;-81
2024/03/28 12:12:20;;;;;;;0.17;0.15;;;;;;;;;;6260458;28;20377;-80
2024/03/28 12:15:20;;;;;;;;;;;;;;;;;;6253688;28;20033;-80
2024/03/28 12:18:21;;;;;;;0.30;0.20;;;;;;;;;;6246622;28;20377;-80
2024/03/28 12:21:21;;;;;;;;;;;;;;;;;;6254020;28;20176;-79
2024/03/28 12:24:21;;;;;;;0.10;0.10;;;;;;;;;;6253163;28;20004;-79
2024/03/28 12:27:21;;;;;;;;;;;;;;;;;;6248225;28;20021;-79
2024/03/28 12:30:21;;;;;;;0.10;0.10;;;;;;;;;;6244627;28;19912;-77
2024/03/28 12:33:22;;;;;;;;;;;;;;;;;;6270466;28;20029;-78
2024/03/28 12:36:22;;;;;;;0.10;0.10;;;;;;;;;;6248320;28;19937;-78
2024/03/28 12:39:22;;;;;;;;;;;;;;;;;;6248790;28;20029;-78
2024/03/28 12:42:22;;;;;;;0.10;0.10;;;;;;;;;;6249402;28;19911;-76
2024/03/28 12:45:22;;;;;;;;;;;;;;;;;;6248554;28;20026;-78
2024/03/28 12:48:23;;;;;;;0.10;0.10;;;;;;;;;;6247235;28;20375;-78
2024/03/28 12:51:23;;;;;;;;;;;;;;;;;;6248061;28;20025;-78
2024/03/28 12:54:23;;;;;;;0.38;0.10;;;;;;;;;;6244776;28;19992;-77
2024/03/28 12:57:23;;;;;;;;;;;;;;;;;;6249493;28;20676;-82
2024/03/28 13:00:24;;;;;;;0.10;0.10;;;;;;;;;;6242387;28;20007;-82
2024/03/28 13:03:24;;;;;;;;;;;;;;;;;;6244035;28;20537;-81
2024/03/28 13:06:24;;;;;;;0.10;0.10;;;;;;;;;;6248707;28;19909;-82
2024/03/28 13:09:24;;;;;;;;;;;;;;;;;;6242597;28;20067;-82
2024/03/28 13:12:27;;;;;;;0.10;0.10;;;;;;;;;;6249415;28;19909;-82
2024/03/28 13:15:28;;;;;;;0.10;0.10;;;;;;;;;;6245720;28;20037;-81
2024/03/28 13:18:28;;;;;;;;;;;;;;;;;;6244050;28;20036;-81
2024/03/28 13:21:30;;;;;;;0.20;0.10;;;;;;;;;;6261607;28;19908;-81
2024/03/28 13:24:30;;;;;;;0.08;0.08;;;;;;;;;;6270507;28;20025;-81
2024/03/28 13:27:30;;;;;;;;;;;;;;;;;;6252204;28;20029;-81
2024/03/28 13:30:30;;;;;;;0.10;0.10;;;;;;;;;;6266729;28;19911;-82
2024/03/28 13:33:30;;;;;;;;;;;;;;;;;;6242232;28;20076;-83
2024/03/28 13:36:31;;;;;;;0.15;0.10;;;;;;;;;;6243523;28;19925;-83
2024/03/28 13:39:31;;;;;;;;;;;;;;;;;;6247700;28;20034;-83
2024/03/28 13:42:31;;;;;;;0.10;0.10;;;;;;;;;;6247549;28;20058;-83
2024/03/28 13:45:31;;;;;;;;;;;;;;;;;;6248348;28;20514;-84
2024/03/28 13:48:36;;;;;;;0.10;0.10;;;;;;;;;;6247066;28;19999;-82
2024/03/28 13:51:36;;;;;;;0.10;0.10;;;;;;;;;;6262518;28;20545;-82
2024/03/28 13:54:36;;;;;;;;;;;;;;;;;;6247281;28;20033;-82
2024/03/28 13:57:37;;;;;;;0.20;0.10;;;;;;;;;;6247326;28;19916;-82
2024/03/28 14:00:37;;;;;;;;;;;;;;;;;;6250327;28;20032;-82
2024/03/28 14:03:37;;;;;;;0.20;0.10;;;;;;;;;;6263483;28;19909;-82
2024/03/28 14:06:39;;;;;;;;;;;;;;;;;;6270375;28;20032;-82
2024/03/28 14:09:39;;;;;;;;;;;;;;;;;;6247043;28;20301;-82
2024/03/28 14:12:39;;;;;;;0.57;0.10;;;;;;;;;;6247681;28;19909;-82
2024/03/28 14:15:39;;;;;;;;;;;;;;;;;;6246971;28;20030;-82
2024/03/28 14:18:40;;;;;;;0.20;0.20;;;;;;;;;;6246321;28;19913;-82
2024/03/28 14:21:40;;;;;;;;;;;;;;;;;;6249110;28;20029;-82
2024/03/28 14:24:40;;;;;;;0.10;0.10;;;;;;;;;;6251277;28;19905;-82
2024/03/28 14:27:40;;;;;;;;;;;;;;;;;;6252649;28;20025;-82
2024/03/28 14:30:40;;;;;;;0.22;0.20;;;;;;;;;;6230819;28;19956;-82
2024/03/28 14:33:41;;;;;;;;;;;;;;;;;;6234899;28;20454;-82
2024/03/28 14:36:41;;;;;;;0.83;0.10;;;;;;;;;;6251310;28;20404;-82
2024/03/28 14:39:41;;;;;;;;;;;;;;;;;;6230505;28;20737;-82
2024/03/28 14:42:41;;;;;;;0.10;0.10;;;;;;;;;;6227141;28;19906;-82
2024/03/28 14:45:41;;;;;;;;;;;;;;;;;;6228030;28;20092;-82
2024/03/28 14:48:42;;;;;;;0.43;0.10;;;;;;;;;;6225986;28;19906;-82
2024/03/28 14:51:42;;;;;;;;;;;;;;;;;;6248967;28;20025;-82
2024/03/28 14:54:48;;;;;;;0.20;0.10;;;;;;;;;;6250553;28;20372;-82
2024/03/28 14:57:48;;;;;;;0.10;0.10;;;;;;;;;;6251523;28;20108;-82
2024/03/28 15:00:48;;;;;;;;;;;;;;;;;;6251169;28;20492;-82
2024/03/28 15:03:48;;;;;;;0.10;0.10;;;;;;;;;;6249331;28;19931;-81
2024/03/28 15:06:48;;;;;;;;;;;;;;;;;;6248192;28;20517;-81
2024/03/28 15:09:48;;;;;;;0.10;0.10;;;;;;;;;;6240998;28;20000;-82
2024/03/28 15:12:49;;;;;;;;;;;;;;;;;;6250852;28;20526;-81
2024/03/28 15:15:49;;;;;;;1.50;0.85;;;;;;;;;;6226425;28;19945;-81
2024/03/28 15:18:49;;;;;;;;;;;;;;;;;;6233078;28;20470;-78
2024/03/28 15:21:49;;;;;;;0.50;0.43;;;;;;;;;;6250434;28;19944;-77
2024/03/28 15:24:49;;;;;;;;;;;;;;;;;;6249002;28;20493;-77
2024/03/28 15:27:53;;;;;;;0.20;0.20;;;;;;;;;;6250542;28;20326;-77
2024/03/28 15:30:53;;;;;;;0.10;0.10;;;;;;;;;;6251909;28;20025;-76
2024/03/28 15:33:53;;;;;;;;;;;;;;;;;;6245747;28;20029;-76
2024/03/28 15:36:54;;;;;;;0.10;0.10;;;;;;;;;;6239350;28;19921;-77
2024/03/28 15:39:54;;;;;;;;;;;;;;;;;;6250390;28;20021;-76
2024/03/28 15:42:55;;;;;;;0.00;0.00;;;;;;;;;;6250273;28;19915;-76
2024/03/28 15:45:55;;;;;;;;;;;;;;;;;;6249901;28;20024;-76
2024/03/28 15:48:55;;;;;;;0.20;0.10;;;;;;;;;;6246067;28;20281;-78
2024/03/28 15:51:55;;;;;;;;;;;;;;;;;;6248032;28;20470;-78
2024/03/28 15:54:55;;;;;;;0.15;0.10;;;;;;;;;;6249307;28;19912;-76
2024/03/28 15:57:55;;;;;;;;;;;;;;;;;;6249367;28;20543;-77
2024/03/28 16:00:56;;;;;;;0.10;0.10;;;;;;;;;;6243621;28;19936;-76
2024/03/28 16:03:56;;;;;;;;;;;;;;;;;;6248984;28;20370;-76
2024/03/28 16:06:57;;;;;;;0.20;0.20;;;;;;;;;;6246636;28;19912;-77
2024/03/28 16:09:57;;;;;;;0.60;0.40;;;;;;;;;;6245471;28;20547;-76
2024/03/28 16:12:57;;;;;;;;;;;;;;;;;;6249946;28;20044;-76
2024/03/28 16:15:57;;;;;;;0.15;0.15;;;;;;;;;;6249927;28;20016;-77
2024/03/28 16:18:57;;;;;;;0.20;0.20;;;;;;;;;;6241787;28;20470;-76
2024/03/28 16:21:58;;;;;;;;;;;;;;;;;;6249492;28;20540;-77
2024/03/28 16:24:58;;;;;;;0.52;0.20;;;;;;;;;;6247613;28;19913;-77
2024/03/28 16:27:58;;;;;;;0.10;0.10;;;;;;;;;;6249258;28;20518;-77
2024/03/28 16:31:04;;;;;;;;;;;;;;;;;;6250226;28;20455;-76
2024/03/28 16:34:05;;;;;;;0.20;0.10;;;;;;;;;;6247144;28;19909;-77
2024/03/28 16:37:05;;;;;;;0.80;0.20;;;;;;;;;;6248292;28;20459;-76
2024/03/28 16:40:05;;;;;;;;;;;;;;;;;;6247818;28;20063;-76
2024/03/28 16:43:08;;;;;;;0.10;0.10;;;;;;;;;;6248718;28;19958;-76
2024/03/28 16:46:08;;;;;;;0.20;0.17;;;;;;;;;;6248787;28;20108;-77
2024/03/28 16:49:08;;;;;;;0.20;0.20;;;;;;;;;;6243706;28;20020;-77
2024/03/28 16:52:08;;;;;;;0.47;0.10;;;;;;;;;;6246249;28;20422;-77
2024/03/28 16:55:09;;;;;;;0.10;0.10;;;;;;;;;;6260164;28;20390;-77
2024/03/28 16:58:09;;;;;;;0.10;0.10;;;;;;;;;;6255570;28;20453;-82
2024/03/28 17:01:09;;;;;;;0.20;0.13;;;;;;;;;;6260975;28;20500;-76
2024/03/28 17:04:09;;;;;;;0.20;0.10;;;;;;;;;;6260119;28;20477;-77
2024/03/28 17:07:10;;;;;;;0.38;0.10;;;;;;;;;;6252885;28;20477;-78
2024/03/28 17:10:10;;;;;;;0.00;0.00;;;;;;;;;;6246979;28;20406;-78
2024/03/28 17:13:10;;;;;;;1.15;0.75;;;;;;;;;;6251349;28;20373;-76
2024/03/28 17:16:11;;;;;;;0.50;0.50;;;;;;;;;;6256648;28;20106;-76
2024/03/28 17:19:13;;;;;;;0.30;0.30;;;;;;;;;;6257502;28;20025;-81
2024/03/28 17:22:13;;;;;;;0.22;0.13;;;;;;;;;;6247648;28;20463;-80
2024/03/28 17:25:13;;;;;;;0.23;0.20;;;;;;;;;;6255937;28;20033;-81
2024/03/28 17:28:14;;;;;;;0.10;0.10;;;;;;;;;;6260744;28;20120;-81
2024/03/28 17:31:16;;;;;;;0.20;0.10;;;;;;;;;;6255661;28;20056;-80
2024/03/28 17:34:16;;;;;;;0.05;0.05;;;;;;;;;;6262491;28;20029;-80
2024/03/28 17:37:16;;;;;;;0.10;0.10;;;;;;;;;;6261137;28;20120;-81
2024/03/28 17:40:17;;;;;;;3.47;2.43;;;;;;;;;;6258557;28;20620;-81
2024/03/28 17:43:17;;;;;;;1.80;1.33;;;;;;;;;;6255175;28;20504;-79
2024/03/28 17:46:17;;;;;;;1.30;0.70;;;;;;;;;;6247995;28;20018;-79
2024/03/28 17:49:19;;;;;;;1.10;0.40;;;;;;;;;;6252431;28;20029;-84
2024/03/28 17:52:19;;;;;;;0.60;0.43;;;;;;;;;;6247548;28;20033;-80
2024/03/28 17:55:19;;;;;;;0.20;0.20;;;;;;;;;;6244778;28;20552;-82
2024/03/28 17:58:20;;;;;;;0.20;0.20;;;;;;;;;;6257791;28;20474;-83
2024/03/28 18:01:20;;;;;;;0.10;0.10;;;;;;;;;;6255259;28;20462;-83
2024/03/28 18:04:20;;;;;;;0.10;0.10;;;;;;;;;;6254793;28;20086;-78
2024/03/28 18:07:26;;;;;;;0.10;0.10;;;;;;;;;;6246429;28;20034;-79
2024/03/28 18:10:26;;;;;;;0.10;0.10;;;;;;;;;;6248462;28;20030;-79
2024/03/28 18:13:26;;;;;;;0.03;0.03;;;;;;;;;;6250675;28;20449;-79
2024/03/28 18:16:27;;;;;;;0.13;0.13;;;;;;;;;;6249826;28;20029;-76
2024/03/28 18:19:27;;;;;;;0.10;0.10;;;;;;;;;;6252028;28;20025;-75
2024/03/28 18:22:28;;;;;;;0.10;0.10;;;;;;;;;;6250187;28;20310;-79
2024/03/28 18:25:28;;;;;;;0.10;0.10;;;;;;;;;;6255129;28;20485;-81
2024/03/28 18:28:29;;;;;;;0.10;0.10;;;;;;;;;;6252135;28;20025;-82